createdAt,value
2018-07-21T00:00:10.285Z,3.17
2018-07-21T00:02:38.770Z,2.73
2018-07-21T00:05:07.356Z,3.10
2018-07-21T00:07:35.797Z,3.00
2018-07-21T00:10:04.421Z,3.10
2018-07-21T00:12:32.897Z,3.10
2018-07-21T00:15:01.435Z,2.77
2018-07-21T00:17:29.872Z,2.80
2018-07-21T00:19:58.389Z,2.87
2018-07-21T00:22:26.955Z,2.73
2018-07-21T00:24:55.464Z,2.87
2018-07-21T00:27:23.937Z,2.77
2018-07-21T00:29:52.362Z,3.33
2018-07-21T00:32:20.937Z,3.20
2018-07-21T00:34:49.465Z,2.97
2018-07-21T00:37:18.067Z,2.60
2018-07-21T00:39:46.687Z,2.93
2018-07-21T00:42:15.330Z,2.87
2018-07-21T00:44:43.892Z,2.80
2018-07-21T00:47:12.377Z,2.90
2018-07-21T00:49:41.026Z,2.80
2018-07-21T00:52:09.575Z,2.93
2018-07-21T00:54:38.096Z,2.90
2018-07-21T00:57:06.658Z,2.43
2018-07-21T00:59:35.150Z,2.50
2018-07-21T01:02:03.837Z,2.70
2018-07-21T01:04:32.325Z,2.70
2018-07-21T01:07:00.837Z,2.73
2018-07-21T01:09:29.427Z,2.73
2018-07-21T01:11:57.922Z,2.60
2018-07-21T01:14:26.411Z,3.20
2018-07-21T01:16:54.925Z,2.60
2018-07-21T01:19:23.365Z,3.03
2018-07-21T01:21:51.888Z,2.30
2018-07-21T01:24:20.430Z,2.70
2018-07-21T01:26:48.968Z,2.83
2018-07-21T01:29:17.450Z,2.77
2018-07-21T01:31:45.994Z,2.80
2018-07-21T01:34:14.533Z,3.00
2018-07-21T01:36:43.119Z,2.53
2018-07-21T01:39:12.193Z,3.13
2018-07-21T01:41:41.093Z,2.40
2018-07-21T01:44:09.566Z,2.83
2018-07-21T01:46:38.025Z,3.00
2018-07-21T01:49:06.558Z,2.53
2018-07-21T01:51:34.985Z,3.13
2018-07-21T01:54:03.539Z,2.73
2018-07-21T01:56:32.056Z,3.07
2018-07-21T01:59:00.617Z,2.83
2018-07-21T02:01:29.124Z,3.17
2018-07-21T02:03:57.671Z,3.00
2018-07-21T02:06:26.116Z,3.37
2018-07-21T02:08:54.650Z,2.93
2018-07-21T02:11:23.140Z,3.00
2018-07-21T02:13:51.636Z,2.90
2018-07-21T02:16:20.114Z,3.17
2018-07-21T02:18:48.836Z,2.80
2018-07-21T02:21:17.307Z,2.60
2018-07-21T02:23:45.964Z,3.10
2018-07-21T02:26:14.591Z,3.57
2018-07-21T02:28:43.062Z,2.93
2018-07-21T02:31:11.565Z,2.90
2018-07-21T02:33:40.049Z,2.70
2018-07-21T02:36:08.578Z,3.10
2018-07-21T02:38:37.041Z,2.73
2018-07-21T02:41:05.524Z,2.60
2018-07-21T02:43:34.092Z,2.60
2018-07-21T02:46:02.581Z,2.50
2018-07-21T02:48:31.046Z,2.73
2018-07-21T02:50:59.542Z,2.70
2018-07-21T02:53:27.971Z,2.60
2018-07-21T02:55:59.348Z,2.70
2018-07-21T02:58:28.759Z,2.57
2018-07-21T03:00:57.233Z,3.27
2018-07-21T03:03:25.646Z,2.70
2018-07-21T03:05:54.133Z,2.70
2018-07-21T03:08:22.601Z,2.57
2018-07-21T03:10:51.181Z,2.57
2018-07-21T03:13:19.691Z,2.60
2018-07-21T03:15:48.163Z,2.50
2018-07-21T03:18:16.703Z,2.70
2018-07-21T03:20:45.199Z,2.83
2018-07-21T03:23:13.702Z,2.77
2018-07-21T03:25:42.223Z,2.60
2018-07-21T03:28:10.650Z,2.60
2018-07-21T03:30:39.094Z,2.30
2018-07-21T03:33:07.565Z,2.60
2018-07-21T03:35:36.057Z,2.43
2018-07-21T03:38:04.860Z,2.63
2018-07-21T03:40:33.490Z,2.43
2018-07-21T03:43:01.978Z,2.50
2018-07-21T03:45:30.454Z,2.50
2018-07-21T03:47:59.009Z,2.70
2018-07-21T03:50:27.537Z,2.50
2018-07-21T03:52:56.117Z,2.63
2018-07-21T03:55:24.600Z,1.93
2018-07-21T03:57:54.357Z,2.60
2018-07-21T04:00:22.797Z,2.40
2018-07-21T04:02:51.365Z,2.50
2018-07-21T04:05:19.919Z,2.60
2018-07-21T04:07:48.434Z,3.00
2018-07-21T04:10:16.913Z,2.40
2018-07-21T04:12:45.609Z,2.43
2018-07-21T04:15:14.156Z,2.93
2018-07-21T04:17:42.701Z,2.20
2018-07-21T04:20:11.189Z,2.60
2018-07-21T04:22:39.618Z,2.43
2018-07-21T04:25:08.204Z,2.00
2018-07-21T04:27:36.693Z,2.67
2018-07-21T04:30:05.517Z,2.50
2018-07-21T04:32:33.960Z,2.63
2018-07-21T04:35:02.571Z,2.80
2018-07-21T04:37:31.084Z,3.20
2018-07-21T04:39:59.513Z,2.63
2018-07-21T04:42:28.019Z,3.03
2018-07-21T04:44:56.645Z,2.70
2018-07-21T04:47:25.115Z,2.70
2018-07-21T04:49:53.603Z,2.43
2018-07-21T04:52:22.110Z,2.60
2018-07-21T04:54:50.637Z,2.60
2018-07-21T04:57:19.250Z,2.77
2018-07-21T04:59:47.744Z,3.10
2018-07-21T05:02:16.242Z,2.30
2018-07-21T05:04:44.727Z,2.60
2018-07-21T05:07:13.313Z,2.60
2018-07-21T05:09:41.788Z,2.57
2018-07-21T05:12:11.090Z,2.57
2018-07-21T05:14:39.586Z,2.70
2018-07-21T05:17:08.209Z,2.70
2018-07-21T05:19:36.766Z,3.20
2018-07-21T05:22:05.214Z,2.30
2018-07-21T05:24:33.669Z,3.00
2018-07-21T05:27:02.343Z,2.60
2018-07-21T05:29:30.802Z,2.83
2018-07-21T05:31:59.274Z,2.13
2018-07-21T05:34:27.810Z,2.53
2018-07-21T05:36:56.287Z,2.30
2018-07-21T05:39:25.198Z,2.47
2018-07-21T05:41:53.887Z,2.90
2018-07-21T05:44:22.342Z,2.53
2018-07-21T05:46:50.825Z,2.33
2018-07-21T05:49:19.227Z,2.40
2018-07-21T05:51:47.711Z,2.73
2018-07-21T05:54:16.304Z,2.50
2018-07-21T05:56:44.799Z,2.10
2018-07-21T05:59:13.333Z,2.30
2018-07-21T06:01:41.772Z,1.97
2018-07-21T06:04:10.286Z,2.23
2018-07-21T06:06:38.784Z,2.60
2018-07-21T06:09:09.043Z,2.20
2018-07-21T06:11:37.521Z,2.30
2018-07-21T06:14:06.177Z,2.67
2018-07-21T06:16:34.715Z,2.20
2018-07-21T06:19:03.108Z,2.23
2018-07-21T06:21:31.569Z,2.20
2018-07-21T06:24:00.094Z,2.30
2018-07-21T06:26:28.724Z,2.23
2018-07-21T06:28:57.203Z,2.47
2018-07-21T06:31:25.682Z,2.10
2018-07-21T06:33:54.094Z,2.60
2018-07-21T06:36:22.898Z,2.27
2018-07-21T06:38:51.451Z,2.90
2018-07-21T06:41:19.877Z,2.73
2018-07-21T06:43:48.500Z,2.80
2018-07-21T06:46:16.999Z,2.47
2018-07-21T06:48:45.521Z,1.93
2018-07-21T06:51:14.058Z,2.20
2018-07-21T06:53:42.591Z,2.30
2018-07-21T06:56:13.329Z,2.30
2018-07-21T06:58:44.366Z,2.30
2018-07-21T07:01:15.201Z,2.42
2018-07-21T07:03:43.750Z,2.35
2018-07-21T07:06:12.321Z,2.15
2018-07-21T07:08:40.801Z,2.45
2018-07-21T07:11:09.363Z,2.72
2018-07-21T07:13:37.828Z,2.80
2018-07-21T07:16:06.659Z,2.33
2018-07-21T07:18:35.188Z,2.35
2018-07-21T07:21:05.101Z,2.77
2018-07-21T07:23:33.623Z,3.00
2018-07-21T07:26:03.633Z,2.42
2018-07-21T07:28:34.642Z,2.70
2018-07-21T07:31:05.497Z,3.10
2018-07-21T07:33:36.942Z,2.80
2018-07-21T07:36:05.493Z,2.60
2018-07-21T07:38:34.839Z,2.85
2018-07-21T07:41:05.562Z,3.70
2018-07-21T07:43:34.574Z,3.35
2018-07-21T07:46:06.271Z,3.35
2018-07-21T07:48:34.764Z,3.50
2018-07-21T07:51:04.048Z,2.80
2018-07-21T07:53:34.922Z,3.10
2018-07-21T07:56:03.939Z,3.45
2018-07-21T07:58:32.607Z,3.30
2018-07-21T08:01:03.442Z,3.27
2018-07-21T08:03:32.190Z,3.42
2018-07-21T08:06:01.749Z,3.80
2018-07-21T08:08:30.864Z,3.27
2018-07-21T08:10:59.629Z,3.40
2018-07-21T08:13:28.250Z,4.53
2018-07-21T08:15:56.986Z,3.75
2018-07-21T08:18:25.623Z,3.62
2018-07-21T08:20:54.424Z,4.20
2018-07-21T08:23:23.798Z,4.42
2018-07-21T08:25:52.328Z,4.67
2018-07-21T08:28:21.060Z,4.25
2018-07-21T08:30:49.802Z,4.45
2018-07-21T08:33:18.313Z,4.35
2018-07-21T08:35:46.710Z,4.62
2018-07-21T08:38:15.376Z,4.58
2018-07-21T08:40:43.956Z,3.75
2018-07-21T08:43:12.603Z,4.33
2018-07-21T08:45:42.886Z,5.08
2018-07-21T08:48:11.392Z,4.42
2018-07-21T08:50:40.187Z,4.15
2018-07-21T08:53:08.889Z,4.53
2018-07-21T08:55:37.274Z,4.50
2018-07-21T08:58:05.809Z,4.65
2018-07-21T09:00:34.387Z,4.65
2018-07-21T09:03:03.115Z,4.72
2018-07-21T09:05:31.556Z,4.78
2018-07-21T09:08:00.093Z,4.65
2018-07-21T09:10:29.048Z,4.40
2018-07-21T09:12:57.532Z,5.25
2018-07-21T09:15:26.050Z,4.75
2018-07-21T09:17:54.701Z,5.00
2018-07-21T09:20:37.550Z,5.05
2018-07-21T09:23:06.047Z,5.22
2018-07-21T09:25:34.678Z,5.00
2018-07-21T09:28:03.207Z,4.65
2018-07-21T09:30:31.840Z,5.25
2018-07-21T09:33:00.845Z,5.12
2018-07-21T09:35:29.378Z,4.53
2018-07-21T09:37:57.903Z,4.62
2018-07-21T09:40:26.637Z,4.37
2018-07-21T09:42:55.274Z,4.75
2018-07-21T09:45:24.286Z,5.35
2018-07-21T09:50:57.324Z,5.12
2018-07-21T09:54:37.102Z,5.50
2018-07-21T09:57:06.224Z,5.78
2018-07-21T09:59:35.462Z,5.45
2018-07-21T10:02:04.670Z,5.28
2018-07-21T10:04:34.349Z,4.83
2018-07-21T10:07:04.296Z,4.60
2018-07-21T10:09:33.146Z,5.05
2018-07-21T10:12:01.808Z,4.58
2018-07-21T10:14:30.936Z,4.95
2018-07-21T10:16:59.648Z,4.67
2018-07-21T10:19:30.051Z,5.05
2018-07-21T10:21:59.726Z,4.92
2018-07-21T10:24:33.679Z,5.58
2018-07-21T10:27:09.224Z,5.20
2018-07-21T10:29:40.545Z,5.37
2018-07-21T10:32:12.182Z,4.90
2018-07-21T10:34:42.981Z,5.20
2018-07-21T10:53:18.312Z,5.30
2018-07-21T10:55:47.011Z,5.50
2018-07-21T10:58:15.644Z,5.45
2018-07-21T11:00:44.215Z,5.37
2018-07-21T11:03:12.746Z,4.65
2018-07-21T11:05:41.640Z,5.70
2018-07-21T11:08:10.533Z,5.15
2018-07-21T11:10:39.045Z,5.30
2018-07-21T11:13:07.598Z,5.05
2018-07-21T11:15:36.073Z,5.50
2018-07-21T11:18:05.015Z,5.08
2018-07-21T11:20:33.691Z,5.28
2018-07-21T11:23:02.808Z,5.05
2018-07-21T11:25:31.657Z,4.92
2018-07-21T11:28:00.676Z,5.08
2018-07-21T11:30:29.256Z,5.03
2018-07-21T11:32:58.153Z,4.87
2018-07-21T11:35:26.841Z,5.05
2018-07-21T11:37:55.540Z,4.75
2018-07-21T11:40:24.213Z,5.12
2018-07-21T11:42:53.373Z,4.65
2018-07-21T11:45:22.318Z,5.85
2018-07-21T11:47:51.578Z,5.20
2018-07-21T11:50:20.461Z,4.80
2018-07-21T11:52:49.478Z,4.87
2018-07-21T11:55:18.442Z,4.80
2018-07-21T11:57:47.350Z,5.33
2018-07-21T12:00:16.440Z,5.33
2018-07-21T12:02:45.337Z,5.60
2018-07-21T12:05:14.481Z,5.00
2018-07-21T12:07:43.336Z,4.85
2018-07-21T12:10:12.243Z,5.28
2018-07-21T12:12:44.361Z,4.87
2018-07-21T12:15:13.100Z,4.85
2018-07-21T12:17:42.157Z,5.20
2018-07-21T12:20:11.640Z,5.15
2018-07-21T12:25:31.456Z,5.67
2018-07-21T12:28:00.636Z,5.10
2018-07-21T12:30:29.350Z,5.60
2018-07-21T12:32:58.248Z,5.08
2018-07-21T12:35:27.311Z,5.10
2018-07-21T12:37:56.440Z,4.78
2018-07-21T12:40:25.099Z,4.60
2018-07-21T12:42:53.585Z,4.85
2018-07-21T12:45:22.386Z,4.78
2018-07-21T12:47:52.917Z,4.70
2018-07-21T12:50:22.204Z,5.05
2018-07-21T12:52:50.999Z,5.40
2018-07-21T12:55:21.007Z,5.22
2018-07-21T12:57:49.531Z,5.47
2018-07-21T13:00:18.215Z,5.22
2018-07-21T13:02:47.694Z,5.22
2018-07-21T13:05:18.459Z,5.10
2018-07-21T13:07:47.154Z,5.62
2018-07-21T13:10:17.210Z,5.28
2018-07-21T13:12:46.104Z,5.72
2018-07-21T13:15:16.227Z,5.35
2018-07-21T13:17:45.391Z,6.10
2018-07-21T13:20:14.217Z,5.80
2018-07-21T13:22:43.788Z,5.50
2018-07-21T13:25:12.904Z,5.75
2018-07-21T13:27:41.528Z,6.05
2018-07-21T13:30:11.018Z,4.95
2018-07-21T13:32:40.901Z,5.60
2018-07-21T13:35:12.043Z,5.15
2018-07-21T13:37:40.601Z,5.85
2018-07-21T13:40:10.743Z,4.67
2018-07-21T13:42:39.410Z,5.92
2018-07-21T13:45:10.210Z,5.85
2018-07-21T13:47:41.133Z,6.20
2018-07-21T13:50:15.214Z,6.03
2018-07-21T13:52:47.408Z,5.17
2018-07-21T13:55:19.983Z,5.25
2018-07-21T13:57:49.189Z,5.95
2018-07-21T14:00:21.494Z,5.35
2018-07-21T14:02:52.985Z,5.30
2018-07-21T14:05:22.157Z,5.95
2018-07-21T14:07:51.307Z,5.65
2018-07-21T14:10:19.950Z,5.62
2018-07-21T14:12:48.877Z,5.83
2018-07-21T14:15:17.735Z,6.30
2018-07-21T14:17:49.154Z,5.90
2018-07-21T14:20:19.193Z,5.67
2018-07-21T14:22:48.173Z,5.53
2018-07-21T14:25:17.499Z,5.97
2018-07-21T14:27:46.551Z,5.95
2018-07-21T14:30:15.391Z,6.70
2018-07-21T14:32:44.056Z,5.92
2018-07-21T14:35:12.990Z,5.87
2018-07-21T14:37:41.956Z,6.45
2018-07-21T14:40:11.319Z,5.53
2018-07-21T14:42:40.459Z,6.00
2018-07-21T14:45:09.882Z,6.22
2018-07-21T14:47:38.529Z,6.37
2018-07-21T14:50:07.983Z,6.70
2018-07-21T14:52:36.698Z,5.58
2018-07-21T14:55:05.652Z,5.50
2018-07-21T14:57:34.248Z,6.33
2018-07-21T15:00:03.160Z,6.03
2018-07-21T15:02:31.747Z,6.87
2018-07-21T15:05:00.288Z,6.28
2018-07-21T15:07:28.808Z,6.30
2018-07-21T15:09:57.640Z,6.00
2018-07-21T15:12:26.075Z,6.58
2018-07-21T15:14:54.687Z,6.78
2018-07-21T15:17:23.142Z,6.17
2018-07-21T15:19:51.745Z,6.25
2018-07-21T15:22:20.329Z,7.15
2018-07-21T15:24:48.778Z,6.37
2018-07-21T15:27:18.334Z,6.03
2018-07-21T15:29:47.348Z,6.35
2018-07-21T15:32:15.800Z,6.97
2018-07-21T15:34:44.620Z,6.47
2018-07-21T15:37:13.170Z,7.12
2018-07-21T15:39:42.009Z,6.10
2018-07-21T15:42:10.869Z,6.17
2018-07-21T15:44:39.780Z,6.47
2018-07-21T15:47:10.640Z,6.78
2018-07-21T15:49:39.243Z,6.83
2018-07-21T15:52:07.913Z,6.58
2018-07-21T15:54:36.572Z,6.15
2018-07-21T15:57:05.256Z,6.22
2018-07-21T15:59:33.999Z,7.05
2018-07-21T16:02:02.707Z,6.58
2018-07-21T16:04:31.147Z,6.60
2018-07-21T16:06:59.639Z,6.58
2018-07-21T16:09:28.157Z,6.22
2018-07-21T16:11:56.535Z,6.15
2018-07-21T16:14:24.990Z,6.58
2018-07-21T16:16:53.538Z,6.60
2018-07-21T16:19:22.097Z,6.67
2018-07-21T16:21:50.887Z,7.10
2018-07-21T16:24:19.779Z,6.67
2018-07-21T16:26:48.368Z,6.58
2018-07-21T16:29:16.864Z,6.22
2018-07-21T16:31:45.357Z,6.25
2018-07-21T16:34:14.676Z,6.70
2018-07-21T16:36:43.420Z,6.55
2018-07-21T16:39:12.605Z,6.80
2018-07-21T16:41:41.340Z,6.47
2018-07-21T16:44:10.405Z,6.80
2018-07-21T16:46:39.722Z,6.33
2018-07-21T16:49:08.611Z,6.33
2018-07-21T16:51:37.113Z,6.72
2018-07-21T16:54:07.801Z,7.00
2018-07-21T16:56:36.245Z,6.80
2018-07-21T16:59:04.868Z,6.75
2018-07-21T17:01:33.349Z,7.58
2018-07-21T17:04:01.753Z,7.10
2018-07-21T17:06:30.243Z,7.33
2018-07-21T17:08:58.863Z,7.35
2018-07-21T17:11:27.270Z,6.85
2018-07-21T17:13:55.823Z,7.25
2018-07-21T17:16:24.307Z,7.28
2018-07-21T17:18:53.114Z,7.28
2018-07-21T17:21:21.651Z,7.50
2018-07-21T17:23:50.185Z,7.25
2018-07-21T17:26:18.746Z,7.15
2018-07-21T17:28:47.260Z,6.22
2018-07-21T17:31:15.683Z,6.92
2018-07-21T17:33:44.156Z,6.92
2018-07-21T17:36:12.629Z,7.22
2018-07-21T17:38:41.332Z,6.40
2018-07-21T17:41:10.727Z,6.83
2018-07-21T17:43:39.273Z,6.80
2018-07-21T17:46:08.123Z,6.40
2018-07-21T17:48:36.780Z,7.15
2018-07-21T17:51:05.460Z,6.92
2018-07-21T17:53:33.991Z,7.05
2018-07-21T17:56:02.361Z,7.40
2018-07-21T17:58:30.864Z,7.17
2018-07-21T18:00:59.726Z,7.05
2018-07-21T18:03:28.163Z,7.10
2018-07-21T18:05:56.892Z,7.10
2018-07-21T18:08:25.462Z,7.95
2018-07-21T18:10:53.935Z,7.45
2018-07-21T18:13:22.449Z,6.85
2018-07-21T18:15:51.124Z,7.22
2018-07-21T18:18:19.618Z,7.42
2018-07-21T18:20:48.287Z,7.40
2018-07-21T18:23:16.774Z,6.62
2018-07-21T18:25:45.566Z,6.90
2018-07-21T18:28:14.155Z,7.22
2018-07-21T18:30:42.979Z,6.72
2018-07-21T18:33:11.617Z,7.10
2018-07-21T18:35:40.072Z,6.35
2018-07-21T18:38:08.475Z,6.97
2018-07-21T18:40:37.067Z,6.65
2018-07-21T18:43:05.688Z,7.72
2018-07-21T18:45:34.155Z,7.47
2018-07-21T18:48:03.047Z,6.95
2018-07-21T18:50:31.691Z,7.33
2018-07-21T18:53:00.161Z,7.25
2018-07-21T18:55:28.770Z,7.10
2018-07-21T18:57:57.474Z,7.50
2018-07-21T19:00:26.375Z,7.12
2018-07-21T19:02:55.003Z,6.85
2018-07-21T19:05:23.760Z,7.10
2018-07-21T19:07:52.919Z,7.80
2018-07-21T19:10:22.397Z,6.95
2018-07-21T19:12:51.639Z,7.20
2018-07-21T19:15:25.605Z,7.50
2018-07-21T19:17:54.425Z,7.58
2018-07-21T19:20:28.315Z,7.17
2018-07-21T19:22:56.933Z,7.80
2018-07-21T19:25:31.014Z,6.92
2018-07-21T19:27:59.555Z,7.03
2018-07-21T19:30:28.215Z,7.83
2018-07-21T19:33:01.139Z,7.12
2018-07-21T19:35:31.220Z,8.13
2018-07-21T19:38:00.113Z,7.42
2018-07-21T19:40:29.132Z,6.90
2018-07-21T19:42:57.777Z,6.83
2018-07-21T19:45:26.624Z,7.15
2018-07-21T19:47:55.474Z,7.15
2018-07-21T19:50:24.241Z,6.90
2018-07-21T19:52:52.852Z,6.50
2018-07-21T19:55:21.599Z,7.55
2018-07-21T19:57:50.650Z,7.42
2018-07-21T20:00:19.249Z,7.60
2018-07-21T20:02:47.933Z,7.08
2018-07-21T20:05:16.701Z,6.87
2018-07-21T20:07:46.104Z,7.20
2018-07-21T20:10:14.994Z,6.78
2018-07-21T20:12:46.269Z,7.10
2018-07-21T20:15:15.945Z,7.25
2018-07-21T20:17:45.363Z,6.72
2018-07-21T20:20:14.350Z,6.90
2018-07-21T20:22:42.890Z,7.00
2018-07-21T20:25:13.475Z,7.17
2018-07-21T20:27:41.958Z,6.85
2018-07-21T20:30:12.880Z,6.65
2018-07-21T20:32:44.134Z,7.70
2018-07-21T20:35:16.986Z,6.67
2018-07-21T20:37:46.107Z,7.53
2018-07-21T20:40:16.121Z,7.13
2018-07-21T20:42:46.544Z,7.03
2018-07-21T20:45:15.527Z,7.17
2018-07-21T20:47:44.778Z,6.97
2018-07-21T20:50:15.517Z,7.47
2018-07-21T20:52:44.249Z,6.93
2018-07-21T20:55:14.073Z,7.15
2018-07-21T20:57:44.137Z,7.60
2018-07-21T21:00:16.070Z,7.37
2018-07-21T21:02:46.159Z,6.37
2018-07-21T21:05:15.997Z,7.00
2018-07-21T21:07:46.864Z,6.75
2018-07-21T21:10:15.573Z,7.10
2018-07-21T21:12:45.039Z,6.42
2018-07-21T21:15:16.199Z,7.10
2018-07-21T21:17:44.986Z,6.87
2018-07-21T21:20:14.130Z,7.50
2018-07-21T21:22:45.059Z,7.13
2018-07-21T21:25:15.248Z,6.72
2018-07-21T21:27:43.754Z,7.57
2018-07-21T21:30:13.739Z,7.53
2018-07-21T21:32:42.769Z,7.97
2018-07-21T21:35:12.467Z,7.23
2018-07-21T21:37:47.621Z,6.97
2018-07-21T21:40:16.242Z,7.00
2018-07-21T21:42:48.630Z,7.17
2018-07-21T21:45:19.420Z,8.07
2018-07-21T21:47:47.897Z,6.80
2018-07-21T21:50:16.462Z,7.37
2018-07-21T21:52:44.931Z,7.17
2018-07-21T21:55:13.775Z,6.93
2018-07-21T21:57:42.232Z,7.17
2018-07-21T22:00:13.179Z,7.30
2018-07-21T22:02:42.038Z,7.80
2018-07-21T22:05:11.481Z,7.20
2018-07-21T22:07:40.078Z,7.40
2018-07-21T22:10:08.601Z,6.83
2018-07-21T22:12:39.402Z,7.43
2018-07-21T22:15:15.761Z,6.93
2018-07-21T22:17:48.585Z,7.60
2018-07-21T22:20:19.141Z,7.63
2018-07-21T22:22:50.549Z,7.40
2018-07-21T22:25:19.310Z,7.30
2018-07-21T22:27:47.894Z,7.50
2018-07-21T22:30:20.594Z,8.30
2018-07-21T22:32:49.493Z,8.17
2018-07-21T22:35:18.093Z,8.30
2018-07-21T22:37:46.646Z,7.93
2018-07-21T22:40:15.394Z,7.23
2018-07-21T22:42:43.879Z,8.27
2018-07-21T22:45:12.393Z,7.80
2018-07-21T22:47:41.264Z,7.83
2018-07-21T22:50:09.993Z,7.97
2018-07-21T22:52:38.620Z,7.80
2018-07-21T22:55:07.248Z,8.00
2018-07-21T22:57:36.398Z,8.23
2018-07-21T23:00:05.774Z,7.13
2018-07-21T23:02:34.324Z,7.50
2018-07-21T23:05:03.010Z,7.10
2018-07-21T23:07:32.443Z,7.17
2018-07-21T23:10:00.910Z,7.17
2018-07-21T23:12:59.923Z,7.53
2018-07-21T23:15:28.427Z,7.83
2018-07-21T23:17:57.085Z,7.27
2018-07-21T23:20:25.661Z,7.23
2018-07-21T23:22:54.409Z,7.73
2018-07-21T23:25:23.098Z,7.47
2018-07-21T23:27:51.846Z,7.73
2018-07-21T23:30:20.385Z,8.20
2018-07-21T23:32:49.190Z,8.13
2018-07-21T23:35:17.775Z,7.97
2018-07-21T23:37:46.364Z,7.90
2018-07-21T23:40:14.863Z,7.83
2018-07-21T23:42:43.408Z,8.67
2018-07-21T23:45:12.027Z,7.77
2018-07-21T23:47:40.555Z,7.50
2018-07-21T23:50:09.183Z,7.93
2018-07-21T23:52:37.741Z,7.57
2018-07-21T23:55:07.344Z,7.70
2018-07-21T23:57:35.962Z,8.77
